Time;durP1;ratioP1;P1;durP2;ratioP2;P2;SDS_P1;SDS_P2;PMS_P1;PMS_P2;Temp;Humidity;BMP_temperature;BMP_pressure;BME280_temperature;BME280_humidity;BME280_pressure;Samples;Min_cycle;Max_cycle;Signal;HPM_P1;HPM_P2
2022/01/22 00:00:13;;;;;;;10.43;2.97;;;6.40;57.40;;;;;;5009025;28;20030;-71
2022/01/22 00:02:39;;;;;;;7.93;2.85;;;6.50;57.30;;;;;;5013705;28;20022;-72
2022/01/22 00:05:07;;;;;;;6.53;2.70;;;6.50;57.20;;;;;;5015317;28;20405;-71
2022/01/22 00:07:33;;;;;;;10.50;3.20;;;6.50;57.30;;;;;;5013196;28;20053;-72
2022/01/22 00:10:04;;;;;;;6.50;2.80;;;6.40;57.50;;;;;;5010714;28;20072;-71
2022/01/22 00:15:06;;;;;;;8.85;3.58;;;6.40;57.50;;;;;;5012737;28;20022;-72
2022/01/22 00:17:32;;;;;;;6.30;2.75;;;6.30;57.50;;;;;;5014383;28;20108;-72
2022/01/22 00:19:58;;;;;;;9.10;3.03;;;6.30;57.50;;;;;;5015082;28;20573;-72
2022/01/22 00:22:27;;;;;;;10.02;3.28;;;6.20;57.70;;;;;;5013651;28;20029;-71
2022/01/22 00:24:57;;;;;;;8.73;3.25;;;6.10;57.90;;;;;;5009379;28;20037;-72
2022/01/22 00:27:23;;;;;;;8.73;3.10;;;6.10;57.80;;;;;;5009890;28;20377;-72
2022/01/22 00:29:49;;;;;;;9.35;3.00;;;6.10;57.90;;;;;;5015470;28;20029;-71
2022/01/22 00:32:14;;;;;;;8.90;3.63;;;6.10;58.10;;;;;;5017581;28;20049;-71
2022/01/22 00:34:41;;;;;;;6.88;2.90;;;6.10;57.80;;;;;;5005535;28;20034;-72
2022/01/22 00:37:06;;;;;;;11.15;3.10;;;6.10;57.80;;;;;;5010752;28;20030;-71
2022/01/22 00:39:34;;;;;;;8.23;2.90;;;6.10;58.00;;;;;;5008607;28;20413;-72
2022/01/22 00:42:00;;;;;;;7.05;2.97;;;6.10;57.90;;;;;;5013000;28;20025;-72
2022/01/22 00:44:26;;;;;;;9.93;3.05;;;6.00;58.00;;;;;;5015684;28;20478;-73
2022/01/22 00:46:55;;;;;;;10.30;3.17;;;6.00;58.10;;;;;;5014982;28;20044;-71
2022/01/22 00:49:20;;;;;;;7.40;3.05;;;6.00;58.10;;;;;;5012236;28;20748;-72
2022/01/22 00:51:46;;;;;;;7.65;3.30;;;6.10;57.90;;;;;;5007714;28;20165;-71
2022/01/22 00:54:12;;;;;;;8.05;2.70;;;6.10;57.90;;;;;;5011075;28;20034;-72
2022/01/22 00:56:38;;;;;;;10.68;3.20;;;6.10;57.80;;;;;;5013729;28;20021;-72
2022/01/22 00:59:03;;;;;;;14.20;3.30;;;6.10;57.90;;;;;;5016030;28;20034;-71
2022/01/22 01:01:29;;;;;;;7.75;2.72;;;6.00;58.10;;;;;;5018317;28;20511;-71
2022/01/22 01:04:01;;;;;;;9.13;2.95;;;6.00;58.00;;;;;;5011800;28;20046;-71
2022/01/22 01:06:27;;;;;;;9.02;2.92;;;5.90;58.10;;;;;;5021257;28;20029;-71
2022/01/22 01:08:53;;;;;;;6.75;2.75;;;5.90;58.30;;;;;;5017439;28;20029;-71
2022/01/22 01:11:18;;;;;;;6.65;2.58;;;5.90;58.60;;;;;;5019066;28;20025;-72
2022/01/22 01:13:48;;;;;;;7.10;2.92;;;6.00;58.60;;;;;;5015345;28;20037;-71
2022/01/22 01:16:37;;;;;;;7.80;2.85;;;5.90;58.20;;;;;;5013921;28;20492;-71
2022/01/22 01:35:15;;;;;;;6.47;2.65;;;5.90;58.60;;;;;;5021210;28;20021;-71
2022/01/22 01:37:40;;;;;;;9.43;2.80;;;5.90;58.50;;;;;;5017479;28;20492;-71
2022/01/22 01:40:08;;;;;;;6.55;2.75;;;5.80;58.80;;;;;;5021569;28;20520;-71
2022/01/22 01:42:47;;;;;;;9.93;2.70;;;5.80;58.30;;;;;;5021968;28;20021;-71
2022/01/22 01:45:13;;;;;;;7.50;2.53;;;5.80;58.70;;;;;;5009946;28;20103;-71
2022/01/22 01:47:44;;;;;;;9.85;2.42;;;5.80;58.60;;;;;;5019797;28;20037;-71
2022/01/22 01:50:10;;;;;;;6.80;2.60;;;5.90;58.70;;;;;;5025308;28;20053;-71
2022/01/22 01:52:44;;;;;;;8.98;3.17;;;5.90;58.50;;;;;;5023529;28;20030;-72
2022/01/22 01:55:15;;;;;;;8.23;2.92;;;6.00;58.40;;;;;;5014498;28;20540;-71
2022/01/22 01:57:42;;;;;;;11.40;2.45;;;5.90;58.40;;;;;;5014557;28;20072;-71
2022/01/22 02:00:21;;;;;;;6.60;2.58;;;5.90;58.50;;;;;;5002635;28;20040;-71
2022/01/22 02:02:48;;;;;;;6.78;2.70;;;5.80;58.40;;;;;;5017853;28;20038;-72
2022/01/22 02:05:15;;;;;;;6.22;2.75;;;5.90;58.40;;;;;;5020718;28;20018;-71
2022/01/22 02:07:43;;;;;;;6.05;2.53;;;5.80;58.30;;;;;;5018474;28;20036;-71
2022/01/22 02:10:15;;;;;;;7.93;2.70;;;5.70;58.40;;;;;;5013374;28;20052;-72
2022/01/22 02:23:42;;;;;;;8.60;2.60;;;5.70;58.90;;;;;;5016362;28;20122;-71
2022/01/22 02:26:09;;;;;;;10.48;2.97;;;5.70;59.20;;;;;;5019989;28;20034;-72
2022/01/22 02:28:36;;;;;;;5.78;2.63;;;5.60;59.00;;;;;;5016521;28;20037;-71
2022/01/22 02:34:05;;;;;;;7.40;2.28;;;5.60;59.50;;;;;;5014367;28;20469;-71
2022/01/22 02:37:20;;;;;;;11.23;3.03;;;5.60;59.50;;;;;;5003519;28;20033;-71
2022/01/22 02:39:23;;;;;;;6.90;2.63;;;5.60;59.50;;;;;;4994616;28;20050;-71
2022/01/22 02:41:51;;;;;;;8.48;2.97;;;5.60;59.20;;;;;;5017029;28;20101;-71
2022/01/22 02:44:43;;;;;;;10.25;3.35;;;5.60;59.30;;;;;;5015541;28;20032;-71
2022/01/22 02:47:09;;;;;;;9.45;3.30;;;5.60;59.50;;;;;;5018963;28;20159;-71
2022/01/22 02:49:36;;;;;;;10.05;3.05;;;5.60;59.30;;;;;;5014634;28;20037;-71
2022/01/22 02:52:07;;;;;;;10.20;3.63;;;5.60;59.30;;;;;;5011490;28;20434;-71
2022/01/22 02:54:34;;;;;;;7.20;2.92;;;5.60;59.40;;;;;;5013969;28;20026;-72
2022/01/22 02:57:00;;;;;;;8.05;3.63;;;5.50;59.80;;;;;;5016531;28;20117;-71
2022/01/22 02:59:26;;;;;;;17.48;3.83;;;5.50;59.70;;;;;;5014596;28;20120;-72
2022/01/22 03:01:52;;;;;;;8.75;3.20;;;5.50;60.00;;;;;;5009203;28;20022;-71
2022/01/22 03:04:18;;;;;;;10.45;3.50;;;5.50;59.70;;;;;;5015980;28;20025;-71
2022/01/22 03:06:44;;;;;;;6.90;2.95;;;5.50;59.80;;;;;;5015988;28;20030;-71
2022/01/22 03:09:13;;;;;;;10.98;3.45;;;5.50;59.80;;;;;;5013182;28;20030;-71
2022/01/22 03:17:13;;;;;;;7.38;2.67;;;5.40;59.90;;;;;;5010782;28;20037;-71
2022/01/22 03:23:06;;;;;;;6.20;2.75;;;5.30;60.60;;;;;;5013143;28;20030;-71
2022/01/22 03:27:44;;;;;;;8.20;3.15;;;5.20;61.00;;;;;;5013599;28;20169;-71
2022/01/22 03:30:10;;;;;;;7.32;2.72;;;5.20;61.10;;;;;;5010737;28;20169;-71
2022/01/22 03:32:43;;;;;;;7.53;3.00;;;5.20;61.20;;;;;;5012638;28;20113;-71
2022/01/22 03:35:34;;;;;;;7.70;2.90;;;5.20;61.10;;;;;;5013783;28;20093;-71
2022/01/22 03:37:58;;;;;;;9.05;3.22;;;5.20;61.20;;;;;;5019751;28;20046;-71
2022/01/22 03:40:27;;;;;;;9.98;3.80;;;5.20;61.20;;;;;;5013617;28;20087;-71
2022/01/22 03:42:54;;;;;;;6.85;2.97;;;5.20;61.00;;;;;;5016400;28;20022;-71
2022/01/22 03:45:21;;;;;;;8.98;3.20;;;5.20;61.30;;;;;;5019880;28;20041;-70
2022/01/22 03:47:47;;;;;;;6.93;3.28;;;5.20;61.10;;;;;;5017834;28;20050;-71
2022/01/22 03:50:15;;;;;;;9.05;3.28;;;5.20;61.20;;;;;;5022950;28;20037;-71
2022/01/22 03:52:41;;;;;;;7.70;3.00;;;5.20;61.40;;;;;;5020455;28;20031;-71
2022/01/22 03:55:14;;;;;;;6.47;2.80;;;5.20;61.40;;;;;;5018011;28;20496;-71
2022/01/22 03:57:41;;;;;;;8.27;2.60;;;5.10;61.30;;;;;;5020486;28;20021;-71
2022/01/22 04:00:08;;;;;;;7.85;2.75;;;5.10;61.60;;;;;;5019753;28;20076;-71
2022/01/22 04:05:03;;;;;;;7.00;2.67;;;5.10;61.90;;;;;;5014821;28;20034;-71
2022/01/22 04:10:20;;;;;;;8.23;2.38;;;5.10;61.70;;;;;;5016379;28;20060;-71
2022/01/22 04:13:00;;;;;;;7.43;2.58;;;5.00;61.90;;;;;;5012759;28;20400;-70
2022/01/22 04:15:29;;;;;;;7.60;2.72;;;5.00;61.80;;;;;;5008147;28;20036;-71
2022/01/22 04:29:02;;;;;;;;;;;5.00;62.10;;;;;;4967194;28;20154;-71
2022/01/22 04:31:28;;;;;;;9.52;3.42;;;5.00;63.20;;;;;;4971065;28;20331;-70
2022/01/22 04:33:53;;;;;;;6.60;2.53;;;5.00;62.60;;;;;;4971885;28;20035;-71
2022/01/22 04:36:19;;;;;;;8.68;2.60;;;4.90;62.30;;;;;;4967760;28;20136;-70
2022/01/22 04:38:45;;;;;;;7.88;3.03;;;5.00;62.60;;;;;;4966289;28;20054;-70
2022/01/22 04:41:11;;;;;;;9.27;3.38;;;4.90;62.70;;;;;;4967402;28;20119;-71
2022/01/22 04:43:39;;;;;;;8.60;2.83;;;4.90;62.70;;;;;;4970214;28;20046;-72
2022/01/22 04:46:21;;;;;;;6.88;2.83;;;4.90;63.00;;;;;;4972838;28;20070;-71
2022/01/22 04:56:46;;;;;;;;;;;4.90;63.00;;;;;;4979253;28;20053;-70
2022/01/22 04:59:13;;;;;;;7.07;2.78;;;4.80;63.50;;;;;;4982312;28;20004;-71
2022/01/22 05:01:39;;;;;;;5.30;2.30;;;4.80;63.30;;;;;;4977116;28;20027;-70
2022/01/22 05:04:05;;;;;;;7.30;3.05;;;4.80;63.00;;;;;;4976630;28;20058;-71
2022/01/22 05:06:31;;;;;;;8.55;3.30;;;4.80;63.30;;;;;;5017837;28;20484;-71
2022/01/22 05:08:57;;;;;;;6.30;2.47;;;4.90;63.30;;;;;;5017732;28;20034;-71
2022/01/22 05:11:24;;;;;;;10.23;3.03;;;4.80;62.80;;;;;;5021996;28;20060;-71
2022/01/22 05:13:51;;;;;;;6.93;2.60;;;4.80;63.20;;;;;;5017715;28;20450;-71
2022/01/22 05:16:17;;;;;;;8.98;2.97;;;4.80;63.10;;;;;;5014397;28;20041;-71
2022/01/22 05:18:54;;;;;;;5.60;2.40;;;4.90;62.90;;;;;;5017894;28;20037;-71
2022/01/22 05:21:21;;;;;;;6.57;2.33;;;4.90;63.00;;;;;;5018792;28;20034;-71
2022/01/22 05:23:47;;;;;;;7.93;2.83;;;4.90;62.60;;;;;;5018176;28;20034;-71
2022/01/22 05:26:42;;;;;;;8.50;2.28;;;4.90;62.70;;;;;;5021913;28;20036;-70
2022/01/22 05:39:24;;;;;;;5.63;2.22;;;5.00;61.90;;;;;;5011053;28;20096;-71
2022/01/22 05:41:50;;;;;;;7.97;2.13;;;5.10;62.20;;;;;;5003095;28;20503;-70
2022/01/22 05:44:16;;;;;;;7.60;2.63;;;5.10;62.30;;;;;;5011198;28;20030;-71
2022/01/22 05:46:42;;;;;;;7.05;1.98;;;5.10;62.20;;;;;;5010265;28;20439;-71
2022/01/22 05:49:07;;;;;;;8.48;2.30;;;5.10;62.30;;;;;;5010836;28;20026;-71
2022/01/22 05:51:35;;;;;;;6.10;2.60;;;5.20;62.20;;;;;;5010271;28;20050;-71
2022/01/22 06:01:57;;;;;;;5.77;2.50;;;5.20;62.00;;;;;;5012271;28;19915;-71
2022/01/22 06:04:23;;;;;;;6.80;2.53;;;5.20;62.10;;;;;;5009831;28;20282;-71
2022/01/22 06:06:49;;;;;;;8.48;2.30;;;5.20;62.10;;;;;;5008802;28;20033;-71
2022/01/22 06:09:14;;;;;;;8.25;2.13;;;5.20;62.10;;;;;;5016912;28;20088;-71
2022/01/22 06:11:54;;;;;;;6.20;2.10;;;5.20;61.80;;;;;;5018126;28;20044;-71
2022/01/22 06:14:20;;;;;;;6.15;2.00;;;5.20;61.80;;;;;;5016798;28;20026;-71
2022/01/22 06:16:46;;;;;;;6.47;2.10;;;5.20;62.10;;;;;;5013943;28;20049;-70
2022/01/22 06:19:12;;;;;;;5.28;2.20;;;5.20;62.30;;;;;;5012715;28;20515;-71
2022/01/22 06:21:38;;;;;;;5.47;2.13;;;5.20;62.10;;;;;;5016632;28;20397;-71
2022/01/22 06:24:04;;;;;;;5.80;2.10;;;5.20;62.20;;;;;;5016600;28;20092;-71
2022/01/22 06:26:30;;;;;;;5.20;2.10;;;5.20;62.20;;;;;;5018929;28;20060;-71
2022/01/22 06:28:55;;;;;;;3.65;2.03;;;5.20;62.10;;;;;;5014322;28;20484;-71
2022/01/22 06:31:21;;;;;;;7.38;2.13;;;5.20;62.50;;;;;;5011384;28;20116;-71
2022/01/22 06:33:47;;;;;;;6.28;2.03;;;5.20;62.30;;;;;;5017086;28;20034;-71
2022/01/22 06:36:13;;;;;;;8.27;2.67;;;5.10;62.60;;;;;;5016406;28;20037;-71
2022/01/22 06:38:38;;;;;;;4.90;2.25;;;5.10;62.60;;;;;;5018031;28;20025;-72
2022/01/22 06:43:48;;;;;;;;;;;5.00;62.90;;;;;;5012368;28;20072;-71
2022/01/22 06:46:14;;;;;;;5.95;2.30;;;5.10;63.20;;;;;;5013548;28;19941;-71
2022/01/22 06:48:40;;;;;;;7.30;2.75;;;5.10;62.80;;;;;;5009649;28;20404;-72
2022/01/22 06:51:06;;;;;;;8.27;2.50;;;5.10;62.90;;;;;;5008730;28;20076;-71
2022/01/22 06:53:40;;;;;;;6.32;2.15;;;5.10;62.70;;;;;;5017407;28;20461;-71
2022/01/22 06:56:07;;;;;;;5.68;2.38;;;5.10;62.70;;;;;;5015677;28;20030;-71
2022/01/22 06:58:33;;;;;;;7.38;2.50;;;5.10;62.70;;;;;;5011674;28;20413;-71
2022/01/22 07:00:58;;;;;;;8.73;2.47;;;5.10;62.80;;;;;;5018364;28;20029;-71
2022/01/22 07:03:24;;;;;;;8.90;3.40;;;5.20;62.70;;;;;;5019881;28;20449;-71
2022/01/22 07:05:50;;;;;;;9.07;3.88;;;5.20;62.60;;;;;;5014295;28;20057;-71
2022/01/22 07:08:15;;;;;;;7.30;2.65;;;5.20;62.40;;;;;;5018394;28;20091;-71
2022/01/22 07:10:41;;;;;;;5.70;2.42;;;5.20;62.70;;;;;;5019554;28;20040;-71
2022/01/22 07:13:07;;;;;;;7.30;2.63;;;5.20;62.50;;;;;;5018467;28;20029;-71
2022/01/22 07:15:33;;;;;;;5.82;2.20;;;5.20;62.50;;;;;;5019608;28;20030;-71
2022/01/22 07:17:59;;;;;;;9.48;3.40;;;5.20;62.30;;;;;;5023569;28;20033;-71
2022/01/22 07:20:33;;;;;;;11.30;3.03;;;5.30;62.20;;;;;;5023925;28;20493;-70
2022/01/22 07:25:24;;;;;;;6.82;2.80;;;5.40;61.90;;;;;;5013831;28;20056;-70
2022/01/22 07:27:50;;;;;;;8.13;3.47;;;5.40;61.70;;;;;;5018018;28;20030;-71
2022/01/22 07:30:16;;;;;;;6.72;2.55;;;5.40;61.90;;;;;;5019461;28;20045;-71
2022/01/22 07:32:44;;;;;;;7.40;2.53;;;5.40;61.80;;;;;;5022384;28;20060;-71
2022/01/22 07:35:15;;;;;;;4.75;2.10;;;5.50;62.10;;;;;;5022472;28;20542;-71
2022/01/22 07:37:40;;;;;;;5.90;2.15;;;5.50;61.80;;;;;;5022163;28;20068;-72
2022/01/22 07:40:08;;;;;;;7.68;3.00;;;5.50;62.00;;;;;;5018767;28;20045;-71
2022/01/22 07:42:34;;;;;;;4.68;2.13;;;5.60;62.00;;;;;;5016572;28;20039;-70
2022/01/22 07:45:01;;;;;;;6.75;2.33;;;5.60;62.00;;;;;;5021434;28;20079;-71
2022/01/22 07:47:27;;;;;;;7.05;2.60;;;5.70;61.80;;;;;;5015173;28;20030;-71
2022/01/22 07:49:53;;;;;;;7.35;2.45;;;5.70;61.90;;;;;;5017693;28;20040;-71
2022/01/22 07:52:18;;;;;;;7.40;2.70;;;5.70;61.80;;;;;;5016651;28;20048;-71
2022/01/22 07:54:44;;;;;;;4.95;2.08;;;5.80;61.60;;;;;;5019961;28;20400;-71
2022/01/22 07:57:10;;;;;;;6.18;2.00;;;5.80;61.60;;;;;;5019157;28;20038;-71
2022/01/22 07:59:36;;;;;;;7.05;2.38;;;5.80;62.20;;;;;;5019715;28;20087;-71
2022/01/22 08:02:02;;;;;;;5.75;2.15;;;5.90;61.80;;;;;;5018102;28;20029;-71
2022/01/22 08:04:29;;;;;;;5.85;2.13;;;5.90;61.70;;;;;;5014928;28;20496;-71
2022/01/22 08:06:58;;;;;;;5.80;2.10;;;6.00;61.60;;;;;;5018528;28;20034;-71
2022/01/22 08:09:23;;;;;;;7.38;2.60;;;6.10;61.50;;;;;;5018956;28;20034;-71
2022/01/22 08:11:49;;;;;;;4.80;2.40;;;6.10;61.40;;;;;;5019049;28;20446;-71
2022/01/22 08:14:16;;;;;;;6.47;2.70;;;6.20;61.40;;;;;;5018735;28;20055;-72
2022/01/22 08:16:43;;;;;;;7.00;2.85;;;6.30;61.30;;;;;;5020492;28;20365;-71
2022/01/22 08:19:10;;;;;;;8.02;3.10;;;6.30;61.10;;;;;;5016954;28;20043;-72
2022/01/22 08:21:35;;;;;;;11.75;3.28;;;6.30;61.00;;;;;;5015324;28;20496;-71
2022/01/22 08:24:01;;;;;;;7.38;3.08;;;6.40;61.10;;;;;;5020054;28;20040;-71
2022/01/22 08:26:32;;;;;;;8.10;3.78;;;6.50;61.10;;;;;;5019839;28;20061;-69
2022/01/22 08:29:00;;;;;;;10.10;3.53;;;6.70;60.80;;;;;;5021146;28;20025;-71
2022/01/22 08:36:45;;;;;;;6.25;2.80;;;7.10;59.90;;;;;;5012841;28;20032;-71
2022/01/22 08:39:14;;;;;;;8.23;3.30;;;7.60;59.10;;;;;;5021187;28;20572;-70
2022/01/22 08:41:39;;;;;;;5.88;2.60;;;9.40;56.10;;;;;;5019669;28;20038;-71
2022/01/22 08:44:05;;;;;;;8.77;3.13;;;12.10;50.30;;;;;;5022962;28;20024;-71
2022/01/22 08:46:31;;;;;;;7.18;2.72;;;14.20;45.30;;;;;;5012697;28;20030;-71
2022/01/22 08:48:58;;;;;;;9.75;3.00;;;15.80;42.50;;;;;;5019143;28;20556;-72
2022/01/22 08:51:24;;;;;;;9.73;4.18;;;17.10;40.20;;;;;;5017237;28;20068;-72
2022/01/22 08:53:50;;;;;;;8.13;3.85;;;17.80;39.30;;;;;;5012543;28;20034;-72
2022/01/22 08:56:16;;;;;;;10.73;3.40;;;18.00;38.00;;;;;;5019639;28;20096;-71
2022/01/22 08:58:42;;;;;;;7.13;2.80;;;18.40;37.70;;;;;;5019287;28;20053;-72
2022/01/22 09:01:08;;;;;;;7.97;3.00;;;18.50;37.00;;;;;;5014711;28;20030;-72
2022/01/22 09:03:34;;;;;;;7.28;2.72;;;18.50;36.60;;;;;;5015458;28;20026;-72
2022/01/22 09:06:02;;;;;;;7.53;2.97;;;17.10;38.20;;;;;;5018840;28;20031;-72
2022/01/22 09:08:28;;;;;;;7.65;2.72;;;15.50;40.90;;;;;;5018195;28;20053;-72
2022/01/22 09:10:54;;;;;;;8.68;2.50;;;14.40;43.10;;;;;;5008319;28;20029;-72
2022/01/22 09:13:21;;;;;;;8.20;2.30;;;13.80;44.60;;;;;;5010377;28;20045;-72
2022/01/22 09:15:48;;;;;;;8.90;2.33;;;13.50;45.20;;;;;;5006278;28;20030;-72
2022/01/22 09:18:14;;;;;;;7.50;2.30;;;12.90;45.80;;;;;;5007517;28;20058;-72
2022/01/22 09:23:06;;;;;;;9.13;3.22;;;12.30;47.80;;;;;;5003715;28;20485;-72
2022/01/22 09:25:33;;;;;;;6.75;2.65;;;12.20;48.20;;;;;;5005844;28;20400;-72
2022/01/22 09:27:59;;;;;;;7.38;2.80;;;12.20;48.20;;;;;;5004897;28;20242;-72
2022/01/22 09:30:25;;;;;;;8.38;3.10;;;12.20;48.10;;;;;;5005848;28;20481;-72
2022/01/22 09:32:51;;;;;;;7.82;3.03;;;12.00;48.40;;;;;;5007259;28;20486;-72
2022/01/22 09:35:16;;;;;;;7.45;3.00;;;12.00;48.40;;;;;;5009433;28;20167;-72
2022/01/22 09:37:43;;;;;;;8.73;2.95;;;11.90;48.70;;;;;;5009102;28;20866;-72
2022/01/22 09:40:10;;;;;;;9.35;2.80;;;11.70;48.80;;;;;;5009497;28;20504;-72
2022/01/22 09:42:36;;;;;;;9.43;2.83;;;11.60;49.30;;;;;;5004960;28;20026;-71
2022/01/22 09:45:03;;;;;;;6.57;2.63;;;11.60;49.40;;;;;;5006915;28;20037;-72
2022/01/22 09:47:29;;;;;;;9.50;2.83;;;11.50;49.40;;;;;;5004439;28;20106;-72
2022/01/22 09:49:55;;;;;;;8.70;3.42;;;11.60;49.70;;;;;;5010059;28;20500;-72
2022/01/22 09:52:22;;;;;;;5.70;2.47;;;11.50;49.60;;;;;;5007751;28;20388;-72
2022/01/22 09:54:48;;;;;;;8.35;2.60;;;11.60;49.00;;;;;;5004029;28;20629;-72
2022/01/22 09:57:14;;;;;;;7.25;2.67;;;11.60;49.10;;;;;;5006096;28;20026;-72
2022/01/22 09:59:40;;;;;;;5.68;2.63;;;11.70;49.50;;;;;;5006064;28;20044;-72
2022/01/22 10:02:11;;;;;;;9.60;3.15;;;11.70;48.80;;;;;;5008084;28;20404;-72
2022/01/22 10:04:38;;;;;;;7.15;2.97;;;11.80;49.30;;;;;;5004120;28;20030;-72
2022/01/22 10:07:04;;;;;;;6.80;2.97;;;11.90;49.00;;;;;;5007576;28;20543;-72
2022/01/22 10:09:37;;;;;;;8.73;3.65;;;12.00;49.00;;;;;;5006816;28;20066;-72
2022/01/22 10:12:16;;;;;;;9.00;3.20;;;12.00;48.90;;;;;;5009666;28;20480;-71
2022/01/22 10:15:09;;;;;;;8.88;3.00;;;12.20;49.10;;;;;;5009956;28;20042;-73
2022/01/22 10:17:55;;;;;;;10.57;3.40;;;12.40;48.70;;;;;;5008536;28;20061;-72
2022/01/22 10:20:24;;;;;;;7.85;2.65;;;12.40;48.50;;;;;;5006459;28;20088;-71
2022/01/22 10:23:02;;;;;;;7.28;2.65;;;12.40;48.20;;;;;;5006102;28;20060;-71
2022/01/22 10:25:41;;;;;;;9.55;3.03;;;12.40;48.00;;;;;;5006317;28;20041;-71
2022/01/22 10:28:23;;;;;;;9.05;3.60;;;12.30;48.20;;;;;;5011752;28;20018;-71
2022/01/22 10:30:55;;;;;;;11.40;3.28;;;12.50;48.90;;;;;;5015636;28;20033;-71
2022/01/22 10:35:49;;;;;;;9.93;2.78;;;12.40;48.20;;;;;;5009436;28;20033;-71
2022/01/22 10:38:18;;;;;;;6.25;2.47;;;12.30;48.10;;;;;;5013813;28;20022;-72
2022/01/22 10:40:45;;;;;;;6.43;2.42;;;12.20;48.00;;;;;;5013667;28;20050;-71
2022/01/22 10:46:05;;;;;;;7.68;2.50;;;12.30;48.90;;;;;;5014658;28;20488;-71
2022/01/22 10:48:31;;;;;;;11.88;3.95;;;12.20;48.10;;;;;;5018043;28;20034;-71
2022/01/22 10:51:09;;;;;;;7.50;2.90;;;12.00;48.50;;;;;;5019179;28;20061;-71
2022/01/22 10:53:42;;;;;;;8.05;2.90;;;11.90;48.80;;;;;;5022508;28;20125;-71
2022/01/22 10:56:08;;;;;;;5.83;2.50;;;11.90;49.10;;;;;;5025667;28;20060;-71
2022/01/22 10:58:34;;;;;;;8.93;2.90;;;11.90;49.10;;;;;;5019977;28;20033;-71
2022/01/22 11:01:05;;;;;;;6.40;3.25;;;12.00;49.50;;;;;;5018558;28;20037;-70
2022/01/22 11:03:32;;;;;;;7.45;2.97;;;12.20;49.40;;;;;;5022473;28;20083;-70
2022/01/22 11:05:59;;;;;;;6.15;2.60;;;12.40;49.20;;;;;;5019697;28;20022;-71
2022/01/22 11:08:28;;;;;;;8.63;2.88;;;12.50;48.70;;;;;;5025815;28;20492;-71
2022/01/22 11:10:54;;;;;;;7.35;2.90;;;12.40;48.20;;;;;;5017560;28;20057;-70
2022/01/22 11:13:20;;;;;;;10.43;2.70;;;12.50;48.10;;;;;;5018026;28;20531;-70
2022/01/22 11:15:50;;;;;;;6.07;2.70;;;12.60;47.90;;;;;;5017869;28;20481;-71
2022/01/22 11:18:18;;;;;;;7.35;2.45;;;12.60;48.00;;;;;;5016247;28;20104;-71
2022/01/22 11:20:45;;;;;;;6.90;2.40;;;12.70;47.40;;;;;;5016261;28;20026;-71
2022/01/22 11:23:13;;;;;;;7.55;2.50;;;12.60;47.70;;;;;;5018055;28;20026;-71
2022/01/22 11:25:41;;;;;;;10.40;2.20;;;12.70;47.70;;;;;;5015638;28;20029;-71
2022/01/22 11:28:07;;;;;;;5.90;2.38;;;12.70;48.10;;;;;;5013617;28;20169;-72
2022/01/22 11:30:34;;;;;;;7.40;2.55;;;12.90;48.10;;;;;;5017023;28;20476;-71
2022/01/22 11:33:15;;;;;;;5.72;2.33;;;12.90;47.40;;;;;;5014305;28;20532;-71
2022/01/22 11:35:44;;;;;;;7.38;2.70;;;13.10;47.60;;;;;;5014315;28;20911;-77
2022/01/22 11:38:15;;;;;;;7.78;2.55;;;13.30;47.00;;;;;;5017009;28;20049;-73
2022/01/22 11:40:41;;;;;;;5.10;2.20;;;13.40;46.40;;;;;;5014652;28;20495;-73
2022/01/22 11:43:12;;;;;;;6.45;2.50;;;13.40;46.00;;;;;;5015688;28;20103;-73
2022/01/22 11:45:50;;;;;;;8.50;2.38;;;13.50;46.30;;;;;;5015981;28;20029;-74
2022/01/22 11:48:24;;;;;;;7.68;2.47;;;13.60;45.70;;;;;;5013756;28;20041;-73
2022/01/22 11:50:53;;;;;;;6.93;2.30;;;13.90;45.90;;;;;;5013810;28;20054;-73
2022/01/22 11:53:21;;;;;;;7.70;2.67;;;14.00;45.80;;;;;;5011014;28;20034;-73
2022/01/22 11:56:12;;;;;;;7.18;2.53;;;14.20;45.70;;;;;;5014964;28;20033;-73
2022/01/22 11:58:56;;;;;;;5.82;2.20;;;14.40;45.30;;;;;;5016977;28;20392;-74
2022/01/22 12:02:03;;;;;;;5.45;2.00;;;14.40;44.70;;;;;;5015152;28;20022;-74
2022/01/22 12:04:38;;;;;;;8.45;2.90;;;14.50;44.60;;;;;;5015912;28;20572;-73
2022/01/22 12:07:03;;;;;;;8.45;2.58;;;14.40;44.40;;;;;;5016255;28;20022;-74
2022/01/22 12:09:36;;;;;;;8.15;2.20;;;14.40;44.30;;;;;;5019659;28;20038;-74
2022/01/22 12:15:06;;;;;;;11.13;2.65;;;14.80;44.30;;;;;;5008443;28;20069;-73
2022/01/22 12:17:47;;;;;;;4.97;1.85;;;15.00;44.80;;;;;;5016475;28;20021;-73
2022/01/22 12:23:03;;;;;;;8.57;2.65;;;15.70;43.20;;;;;;5012915;28;20029;-74
2022/01/22 12:25:29;;;;;;;7.28;2.10;;;18.70;41.40;;;;;;5013948;28;20113;-74
2022/01/22 12:27:56;;;;;;;6.38;2.03;;;20.70;38.70;;;;;;5012824;28;20108;-74
2022/01/22 12:30:44;;;;;;;10.77;2.25;;;22.00;37.20;;;;;;5013289;28;20076;-74
2022/01/22 12:33:15;;;;;;;8.88;2.20;;;23.10;34.90;;;;;;5008471;28;20042;-74
2022/01/22 12:35:46;;;;;;;9.32;2.08;;;23.40;34.60;;;;;;5011492;28;20429;-74
2022/01/22 12:38:31;;;;;;;11.57;2.72;;;23.80;33.90;;;;;;5014355;28;20026;-74
2022/01/22 12:44:30;;;;;;;7.90;2.20;;;23.70;33.60;;;;;;4975215;28;20054;-76
2022/01/22 12:47:02;;;;;;;7.63;2.00;;;22.50;33.70;;;;;;4971231;28;20450;-74
2022/01/22 12:49:29;;;;;;;10.10;2.00;;;21.00;34.90;;;;;;4970871;28;20042;-73
2022/01/22 12:51:57;;;;;;;6.57;2.15;;;19.70;36.60;;;;;;4972902;28;20038;-77
2022/01/22 12:54:30;;;;;;;12.68;2.53;;;18.60;38.20;;;;;;4970432;28;20430;-74
2022/01/22 12:57:07;;;;;;;4.97;2.58;;;18.00;39.60;;;;;;4966391;28;20481;-73
2022/01/22 12:59:48;;;;;;;6.60;2.42;;;18.10;40.00;;;;;;4973026;28;20065;-73
2022/01/22 13:02:14;;;;;;;13.55;2.60;;;19.10;39.80;;;;;;4972348;28;20031;-73
2022/01/22 13:04:40;;;;;;;7.28;2.67;;;21.60;37.70;;;;;;4973378;28;20034;-73
2022/01/22 13:07:11;;;;;;;5.68;2.15;;;23.20;35.00;;;;;;4970145;28;20034;-74
2022/01/22 13:09:47;;;;;;;7.50;2.38;;;23.70;34.10;;;;;;4971237;28;20031;-73
2022/01/22 13:12:13;;;;;;;6.72;1.95;;;22.90;35.50;;;;;;4969156;28;20035;-74
2022/01/22 13:14:38;;;;;;;6.15;2.30;;;24.10;34.10;;;;;;4971189;28;20397;-73
2022/01/22 13:17:12;;;;;;;7.10;2.20;;;25.60;33.40;;;;;;4972446;28;20161;-73
2022/01/22 13:19:38;;;;;;;5.60;2.50;;;26.20;32.70;;;;;;5006153;28;20412;-74
2022/01/22 13:22:04;;;;;;;6.82;2.38;;;27.40;32.50;;;;;;5006484;28;20030;-74
2022/01/22 13:24:31;;;;;;;6.90;2.42;;;28.10;31.90;;;;;;5002878;28;20026;-72
2022/01/22 13:29:38;;;;;;;9.07;2.13;;;27.70;31.00;;;;;;5004293;28;20022;-73
2022/01/22 13:48:30;;;;;;;5.88;1.98;;;28.30;30.80;;;;;;5103557;28;20483;-68
2022/01/22 13:50:57;;;;;;;7.75;2.00;;;28.20;31.00;;;;;;5102584;28;20047;-67
2022/01/22 13:53:24;;;;;;;4.55;2.03;;;29.10;31.10;;;;;;5106478;28;20036;-68
2022/01/22 13:55:58;;;;;;;4.78;1.88;;;29.30;31.20;;;;;;5106129;28;20039;-68
2022/01/22 13:58:23;;;;;;;5.25;2.20;;;29.50;30.80;;;;;;5105932;28;20028;-67
2022/01/22 14:00:49;;;;;;;5.13;1.83;;;29.60;31.30;;;;;;5101551;28;20036;-67
2022/01/22 14:03:29;;;;;;;4.18;1.73;;;28.50;30.50;;;;;;5103247;28;20030;-67
2022/01/22 14:05:55;;;;;;;3.72;1.60;;;28.00;30.80;;;;;;5101165;28;20576;-67
2022/01/22 14:08:34;;;;;;;5.72;1.42;;;27.40;30.60;;;;;;5104218;28;20036;-66
2022/01/22 14:11:05;;;;;;;5.53;1.50;;;27.20;30.50;;;;;;5104520;28;20038;-67
2022/01/22 14:13:31;;;;;;;6.72;1.90;;;26.80;30.70;;;;;;5106365;28;20042;-66
2022/01/22 14:16:09;;;;;;;6.35;1.90;;;26.60;30.70;;;;;;5106837;28;20024;-68
2022/01/22 14:18:43;;;;;;;4.85;1.85;;;27.20;31.40;;;;;;5110318;28;20441;-67
2022/01/22 14:21:17;;;;;;;4.97;1.88;;;27.00;31.50;;;;;;5108228;28;20044;-68
2022/01/22 14:23:44;;;;;;;4.43;1.80;;;26.40;31.00;;;;;;5105432;28;23386;-69
2022/01/22 14:26:11;;;;;;;12.18;2.38;;;26.30;31.40;;;;;;5107714;28;20024;-68
2022/01/22 14:28:48;;;;;;;6.78;2.10;;;26.70;31.50;;;;;;5102952;28;20089;-67
2022/01/22 14:31:25;;;;;;;5.10;2.20;;;26.30;31.40;;;;;;5106513;28;20463;-68
2022/01/22 14:33:55;;;;;;;7.93;2.00;;;26.10;32.00;;;;;;5094582;28;20027;-69
2022/01/22 14:36:27;;;;;;;9.90;2.58;;;26.10;31.90;;;;;;5096744;28;20028;-70
2022/01/22 14:44:41;;;;;;;4.75;1.80;;;24.70;32.40;;;;;;5099043;28;20132;-69
2022/01/22 14:47:22;;;;;;;5.05;2.45;;;25.10;33.00;;;;;;5102595;28;20062;-67
2022/01/22 14:50:00;;;;;;;8.73;2.30;;;24.70;32.70;;;;;;5099122;28;20125;-68
2022/01/22 14:52:27;;;;;;;8.73;2.20;;;24.50;33.20;;;;;;5098350;28;20057;-66
2022/01/22 14:54:56;;;;;;;8.32;2.55;;;25.00;33.30;;;;;;5099590;28;20409;-67
2022/01/22 14:57:24;;;;;;;13.23;4.18;;;24.60;33.10;;;;;;5085436;28;20024;-66
2022/01/22 14:59:50;;;;;;;6.72;2.72;;;24.60;33.60;;;;;;5085268;28;20023;-67
2022/01/22 15:02:16;;;;;;;10.48;3.50;;;23.60;33.40;;;;;;5087877;28;20584;-67
2022/01/22 15:04:43;;;;;;;6.53;2.97;;;22.70;35.10;;;;;;5092141;28;20043;-67
2022/01/22 15:07:15;;;;;;;7.80;3.42;;;22.20;35.70;;;;;;5093634;28;20028;-67
2022/01/22 15:09:43;;;;;;;8.20;3.45;;;21.30;36.40;;;;;;5094204;28;20028;-67
2022/01/22 15:12:10;;;;;;;5.32;2.60;;;20.90;37.00;;;;;;5088297;28;20035;-67
2022/01/22 15:14:38;;;;;;;6.65;2.97;;;20.20;37.70;;;;;;5086646;28;20503;-66
2022/01/22 15:19:37;;;;;;;7.50;3.20;;;19.40;39.00;;;;;;5090504;28;20440;-67
2022/01/22 15:22:04;;;;;;;7.03;3.40;;;18.70;39.90;;;;;;5092850;28;20031;-67